Perry, IA

10:25 AM CDT on April 24, 2017 (GMT -0500)
Perry Municipal

Weather History for KPRO - November, 2011

Change the Weather History Date:

Thursday, November 17, 2011

  Actual Average Record
Temperature  
Mean Temperature 32 °F -  
Max Temperature 46 °F 45 °F 71 °F (1953)
Min Temperature 19 °F 27 °F -5 °F (1959)
Degree Days  
Heating Degree Days 32    
Moisture  
Dew Point 16 °F    
Average Humidity 55    
Maximum Humidity 80    
Minimum Humidity 25    
Precipitation  
Precipitation 0.00 in - - ()
Sea Level Pressure  
Sea Level Pressure 30.17 in    
Wind  
Wind Speed 10 mph (SW)    
Max Wind Speed 18 mph    
Max Gust Speed 22 mph    
Visibility 10 miles    
Events      
Averages and records for this station are not official NWS values.
T = Trace of Precipitation, MM = Missing Value Source: NWS Daily Summary

Daily Weather History Graph

Daily Weather History Graph

Search for Another Location

Airport or City:

Trip Planner

Search our weather history database for the weather conditions in past years. The results will help you decide how hot, cold, wet, or windy it might be!

Date:

Astronomy

Nov. 17, 2011 Rise Set
Actual Time 7:08 AM CST 4:54 PM CST
Civil Twilight 6:38 AM CST 5:24 PM CST
Nautical Twilight 6:04 AM CST 5:58 PM CST
Astronomical Twilight 5:31 AM CST 6:31 PM CST
Moon 11:17 PM CST (11/17) 12:16 PM CST (11/17)
Length of Visible Light 10h 46m
Length of Day
9h 46m
Waning Gibbous, 59% of the Moon is Illuminated
Nov 17
Waning Gibbous
Nov 18
Last Quarter
Nov 25
New
Dec 2
First Quarter
Dec 10
Full

Hourly Weather History & Observations

Time (CST) Temp. Windchill Dew Point Humidity Pressure Visibility Wind Dir Wind Speed Gust Speed Precip Events Conditions
12:15 AM 23.0 °F 12.4 °F 14.0 °F 68% 30.25 in 10.0 mi WSW 10.4 mph - N/A   Clear
12:35 AM 21.2 °F 10.9 °F 14.0 °F 74% 30.25 in 10.0 mi WSW 9.2 mph - N/A   Clear
12:55 AM 23.0 °F 12.4 °F 14.0 °F 68% 30.25 in 10.0 mi WSW 10.4 mph - N/A   Clear
1:15 AM 23.0 °F 13.1 °F 14.0 °F 68% 30.24 in 10.0 mi WSW 9.2 mph - N/A   Clear
1:35 AM 23.0 °F 11.1 °F 14.0 °F 68% 30.25 in 10.0 mi West 12.7 mph - N/A   Clear
1:55 AM 23.0 °F 12.4 °F 14.0 °F 68% 30.25 in 10.0 mi West 10.4 mph - N/A   Clear
2:15 AM 21.2 °F 10.9 °F 14.0 °F 74% 30.25 in 10.0 mi WSW 9.2 mph - N/A   Clear
2:35 AM 21.2 °F 11.7 °F 14.0 °F 74% 30.25 in 10.0 mi WSW 8.1 mph - N/A   Clear
2:55 AM 19.4 °F 9.5 °F 14.0 °F 80% 30.25 in 10.0 mi WSW 8.1 mph - N/A   Clear
3:15 AM 19.4 °F 8.6 °F 12.2 °F 74% 30.26 in 10.0 mi WSW 9.2 mph - N/A   Clear
3:35 AM 21.2 °F 10.9 °F 14.0 °F 74% 30.25 in 10.0 mi West 9.2 mph - N/A   Clear
4:15 AM 21.2 °F 10.9 °F 14.0 °F 74% 30.24 in 10.0 mi SW 9.2 mph - N/A   Clear
4:35 AM 21.2 °F 10.9 °F 14.0 °F 74% 30.24 in 10.0 mi SW 9.2 mph - N/A   Clear
4:55 AM 19.4 °F 9.5 °F 14.0 °F 80% 30.24 in 10.0 mi SW 8.1 mph - N/A   Clear
5:15 AM 19.4 °F 10.4 °F 12.2 °F 74% 30.24 in 10.0 mi SW 6.9 mph - N/A   Clear
5:35 AM 19.4 °F 10.4 °F 12.2 °F 74% 30.24 in 10.0 mi SW 6.9 mph - N/A   Clear
6:15 AM 19.4 °F 8.6 °F 12.2 °F 74% 30.25 in 10.0 mi SW 9.2 mph - N/A   Clear
6:35 AM 19.4 °F 9.5 °F 12.2 °F 74% 30.24 in 10.0 mi SW 8.1 mph - N/A   Clear
6:55 AM 19.4 °F 7.9 °F 12.2 °F 74% 30.24 in 10.0 mi SSW 10.4 mph - N/A   Clear
7:15 AM 19.4 °F 7.2 °F 12.2 °F 74% 30.24 in 10.0 mi SW 11.5 mph - N/A   Clear
7:35 AM 21.2 °F 9.5 °F 14.0 °F 74% 30.25 in 10.0 mi SW 11.5 mph - N/A   Clear
7:55 AM 24.8 °F 16.1 °F 15.8 °F 69% 30.25 in 10.0 mi WSW 8.1 mph - N/A   Clear
8:15 AM 26.6 °F 19.1 °F 17.6 °F 69% 30.25 in 10.0 mi SW 6.9 mph - N/A   Clear
8:35 AM 28.4 °F 21.2 °F 17.6 °F 64% 30.25 in 10.0 mi SW 6.9 mph - N/A   Clear
8:55 AM 30.2 °F 23.4 °F 15.8 °F 55% 30.25 in 10.0 mi SW 6.9 mph - N/A   Clear
9:15 AM 30.2 °F 23.4 °F 17.6 °F 60% 30.24 in 10.0 mi WSW 6.9 mph - N/A   Clear
9:35 AM 32.0 °F 26.4 °F 17.6 °F 55% 30.24 in 10.0 mi SSW 5.8 mph - N/A   Clear
9:55 AM 32.0 °F 27.5 °F 19.4 °F 60% 30.24 in 10.0 mi SSW 4.6 mph - N/A   Clear
10:15 AM 35.6 °F - 19.4 °F 52% 30.23 in 10.0 mi Calm Calm - N/A   Clear
10:35 AM 37.4 °F 32.1 °F 19.4 °F 48% 30.22 in 10.0 mi WSW 6.9 mph - N/A   Clear
10:55 AM 41.0 °F 36.4 °F 19.4 °F 42% 30.21 in 10.0 mi WSW 6.9 mph - N/A   Clear
11:15 AM 41.0 °F 34.7 °F 17.6 °F 39% 30.21 in 10.0 mi West 10.4 mph - N/A   Clear
11:35 AM 42.8 °F 37.5 °F 15.8 °F 34% 30.20 in 10.0 mi WSW 9.2 mph - N/A   Clear
11:55 AM 42.8 °F 37.0 °F 14.0 °F 31% 30.18 in 10.0 mi WSW 10.4 mph - N/A   Clear
12:15 PM 44.6 °F 38.1 °F 14.0 °F 29% 30.17 in 10.0 mi WSW 13.8 mph 17.3 mph N/A   Clear
12:35 PM 44.6 °F 38.1 °F 14.0 °F 29% 30.16 in 10.0 mi WSW 13.8 mph 21.9 mph N/A   Clear
12:55 PM 44.6 °F 36.9 °F 14.0 °F 29% 30.15 in 10.0 mi SW 18.4 mph 21.9 mph N/A   Clear
1:15 PM 46.4 °F 40.1 °F 14.0 °F 27% 30.14 in 10.0 mi WSW 15.0 mph 19.6 mph N/A   Clear
1:35 PM 46.4 °F 40.1 °F 12.2 °F 25% 30.13 in 10.0 mi WSW 15.0 mph 20.7 mph N/A   Clear
2:15 PM 46.4 °F 40.1 °F 12.2 °F 25% 30.12 in 10.0 mi SSW 15.0 mph - N/A   Clear
2:35 PM 46.4 °F 39.8 °F 12.2 °F 25% 30.11 in 10.0 mi SW 16.1 mph 19.6 mph N/A   Clear
2:55 PM 46.4 °F 40.4 °F 12.2 °F 25% 30.10 in 10.0 mi SSW 13.8 mph 18.4 mph N/A   Clear
3:15 PM 46.4 °F 40.4 °F 12.2 °F 25% 30.09 in 10.0 mi SSW 13.8 mph - N/A   Clear
3:35 PM 46.4 °F 39.8 °F 12.2 °F 25% 30.09 in 10.0 mi SSW 16.1 mph 20.7 mph N/A   Clear
3:55 PM 44.6 °F 38.4 °F 12.2 °F 27% 30.08 in 10.0 mi SSW 12.7 mph - N/A   Clear
4:15 PM 42.8 °F 37.0 °F 14.0 °F 31% 30.07 in 10.0 mi South 10.4 mph - N/A   Clear
4:35 PM 42.8 °F 37.0 °F 15.8 °F 34% 30.06 in 10.0 mi South 10.4 mph - N/A   Clear
4:55 PM 39.2 °F 33.6 °F 17.6 °F 42% 30.05 in 10.0 mi SSE 8.1 mph - N/A   Clear
5:15 PM 37.4 °F 31.4 °F 19.4 °F 48% 30.05 in 10.0 mi SSE 8.1 mph - N/A   Clear
5:35 PM 37.4 °F 31.4 °F 21.2 °F 52% 30.05 in 10.0 mi SSE 8.1 mph - N/A   Clear
5:55 PM 37.4 °F 30.3 °F 21.2 °F 52% 30.04 in 10.0 mi SSE 10.4 mph - N/A   Clear
6:15 PM 35.6 °F 28.0 °F 21.2 °F 56% 30.04 in 10.0 mi SSE 10.4 mph - N/A   Clear
6:35 PM 35.6 °F 28.0 °F 21.2 °F 56% 30.04 in 10.0 mi SSE 10.4 mph - N/A   Clear
6:55 PM 35.6 °F 28.0 °F 21.2 °F 56% 30.03 in 10.0 mi SE 10.4 mph - N/A   Clear
7:35 PM 33.8 °F 25.3 °F 23.0 °F 65% 30.00 in 10.0 mi SSE 11.5 mph - N/A   Clear
7:55 PM 35.6 °F 28.0 °F 23.0 °F 60% 30.00 in 10.0 mi SSE 10.4 mph - N/A   Clear
8:15 PM 33.8 °F 25.8 °F 23.0 °F 65% 29.99 in 10.0 mi SSE 10.4 mph - N/A   Clear
8:35 PM 33.8 °F 26.4 °F 23.0 °F 65% 29.99 in 10.0 mi SSE 9.2 mph - N/A   Clear
8:55 PM 33.8 °F 25.3 °F 23.0 °F 65% 29.98 in 10.0 mi SSE 11.5 mph - N/A   Clear
9:35 PM 35.6 °F 27.1 °F 23.0 °F 60% 29.97 in 10.0 mi SSE 12.7 mph - N/A   Clear
9:55 PM 35.6 °F 27.1 °F 23.0 °F 60% 29.97 in 10.0 mi SSE 12.7 mph - N/A   Clear
10:35 PM 35.6 °F 26.6 °F 24.8 °F 65% 29.95 in 10.0 mi South 13.8 mph - N/A   Clear
10:55 PM 35.6 °F 25.9 °F 26.6 °F 70% 29.94 in 10.0 mi South 16.1 mph - N/A   Clear
11:15 PM 35.6 °F 25.5 °F 26.6 °F 70% 29.93 in 10.0 mi South 17.3 mph 24.2 mph N/A   Clear
11:35 PM 35.6 °F 25.9 °F 26.6 °F 70% 29.92 in 10.0 mi South 16.1 mph - N/A   Clear
11:55 PM 35.6 °F 25.2 °F 26.6 °F 70% 29.91 in 10.0 mi South 18.4 mph 21.9 mph N/A   Clear